Time;durP1;ratioP1;P1;durP2;ratioP2;P2;SDS_P1;SDS_P2;PMS_P1;PMS_P2;Temp;Humidity;BMP_temperature;BMP_pressure;BME280_temperature;BME280_humidity;BME280_pressure;Samples;Min_cycle;Max_cycle;Signal;HPM_P1;HPM_P2
2023/04/05 00:01:25;;;;;;;10.02;4.90;;;;;;;1.43;62.26;102672.53;7386933;19;20308;-58
2023/04/05 00:03:53;;;;;;;12.75;5.15;;;;;;;1.22;62.79;102673.69;7389627;19;20002;-58
2023/04/05 00:06:21;;;;;;;10.75;5.10;;;;;;;0.85;63.88;102673.22;7388691;19;20073;-58
2023/04/05 00:08:48;;;;;;;10.80;5.32;;;;;;;0.60;65.23;102678.72;7389197;19;20007;-57
2023/04/05 00:11:15;;;;;;;11.90;5.10;;;;;;;0.89;64.35;102675.78;7389906;19;20017;-57
2023/04/05 00:13:41;;;;;;;13.52;5.50;;;;;;;1.00;63.98;102670.44;7389076;19;20002;-57
2023/04/05 00:16:07;;;;;;;9.68;4.70;;;;;;;1.24;63.23;102666.66;7387126;19;20048;-57
2023/04/05 00:18:33;;;;;;;12.45;5.28;;;;;;;1.03;63.40;102659.94;7389417;19;20006;-58
2023/04/05 00:20:58;;;;;;;12.15;5.10;;;;;;;0.63;65.27;102676.09;7390766;19;20469;-58
2023/04/05 00:23:25;;;;;;;10.70;4.80;;;;;;;0.89;64.71;102667.06;7389650;19;20011;-58
2023/04/05 00:25:51;;;;;;;13.77;5.15;;;;;;;1.04;64.05;102658.19;7388335;19;20030;-58
2023/04/05 00:28:17;;;;;;;10.02;4.13;;;;;;;0.79;64.57;102661.09;7390167;19;20013;-59
2023/04/05 00:30:42;;;;;;;11.00;5.30;;;;;;;0.79;64.92;102674.19;7390784;19;20003;-57
2023/04/05 00:33:08;;;;;;;10.20;4.78;;;;;;;0.58;65.09;102663.91;7390344;19;20005;-57
2023/04/05 00:35:33;;;;;;;10.82;4.93;;;;;;;0.59;65.66;102670.88;7390098;19;20016;-57
2023/04/05 00:37:59;;;;;;;10.55;4.88;;;;;;;0.85;64.48;102662.75;7390759;19;20082;-57
2023/04/05 00:40:25;;;;;;;10.43;5.22;;;;;;;0.61;64.93;102667.38;7390154;19;20005;-57
2023/04/05 00:42:50;;;;;;;12.10;5.40;;;;;;;0.50;65.24;102666.59;7389371;19;20040;-57
2023/04/05 00:45:16;;;;;;;14.30;5.80;;;;;;;0.43;65.73;102668.41;7386409;19;19999;-58
2023/04/05 00:47:48;;;;;;;11.32;5.25;;;;;;;0.34;65.89;102665.00;7390108;19;20017;-58
2023/04/05 00:50:15;;;;;;;13.35;5.45;;;;;;;0.29;66.16;102661.56;7388337;19;20018;-58
2023/04/05 00:52:42;;;;;;;14.70;5.70;;;;;;;0.36;66.11;102661.47;7390499;19;20006;-58
2023/04/05 00:55:09;;;;;;;10.77;4.97;;;;;;;0.59;65.46;102658.66;7389393;19;20013;-57
2023/04/05 00:57:37;;;;;;;11.77;4.75;;;;;;;0.88;63.74;102657.50;7390671;19;20025;-58
2023/04/05 01:00:08;;;;;;;11.77;5.68;;;;;;;1.08;62.93;102650.28;7387475;19;20017;-56
2023/04/05 01:03:01;;;;;;;11.55;5.63;;;;;;;0.61;64.67;102645.59;7388957;19;19998;-57
2023/04/05 01:05:41;;;;;;;10.43;4.70;;;;;;;0.31;66.18;102652.81;7386925;19;20075;-56
2023/04/05 01:08:13;;;;;;;10.18;5.45;;;;;;;0.35;65.80;102649.31;7389000;19;20007;-58
2023/04/05 01:10:45;;;;;;;11.35;5.35;;;;;;;0.44;64.92;102649.25;7390214;19;20002;-58
2023/04/05 01:13:11;;;;;;;12.25;5.60;;;;;;;0.20;65.61;102647.69;7388164;19;19999;-57
2023/04/05 01:15:36;;;;;;;11.05;5.82;;;;;;;0.18;66.20;102638.16;7387430;19;20471;-57
2023/04/05 01:18:02;;;;;;;13.98;5.65;;;;;;;0.62;64.86;102650.78;7389530;19;20533;-58
2023/04/05 01:20:36;;;;;;;11.18;5.50;;;;;;;0.33;65.05;102640.63;7387668;19;19991;-57
2023/04/05 01:23:21;;;;;;;10.75;5.35;;;;;;;0.11;66.16;102647.78;7395119;19;20014;-57
2023/04/05 01:26:05;;;;;;;12.70;5.38;;;;;;;0.52;64.83;102646.56;7391033;19;20791;-58
2023/04/05 01:29:02;;;;;;;13.05;6.95;;;;;;;0.49;65.06;102649.19;7395331;19;20615;-58
2023/04/05 01:31:55;;;;;;;11.63;5.43;;;;;;;0.59;64.93;102650.81;7397315;19;20002;-57
2023/04/05 01:34:36;;;;;;;11.23;5.85;;;;;;;0.80;64.14;102652.34;7395095;19;19999;-58
2023/04/05 01:37:07;;;;;;;12.90;5.35;;;;;;;0.89;63.73;102643.53;7397069;19;20006;-58
2023/04/05 01:39:35;;;;;;;10.95;5.40;;;;;;;0.79;63.99;102650.63;7395015;19;20085;-57
2023/04/05 01:42:01;;;;;;;12.13;5.32;;;;;;;0.91;63.76;102641.78;7395155;19;19991;-58
2023/04/05 01:44:28;;;;;;;12.13;5.30;;;;;;;0.72;63.99;102637.63;7394572;19;19998;-58
2023/04/05 01:46:54;;;;;;;11.07;6.03;;;;;;;0.65;65.13;102647.28;7395829;19;20010;-58
2023/04/05 01:49:21;;;;;;;11.80;5.65;;;;;;;0.46;65.15;102645.72;7394712;19;19995;-58
2023/04/05 01:51:47;;;;;;;13.50;5.57;;;;;;;0.12;66.37;102644.28;7395474;19;20076;-58
2023/04/05 01:54:12;;;;;;;11.38;5.82;;;;;;;0.37;65.75;102641.47;7396316;19;19994;-58
2023/04/05 01:56:38;;;;;;;11.10;6.03;;;;;;;0.16;66.33;102632.03;7395106;19;20463;-58
2023/04/05 01:59:03;;;;;;;11.93;5.30;;;;;;;0.54;65.00;102631.69;7393858;19;19999;-58
2023/04/05 02:01:29;;;;;;;14.82;5.78;;;;;;;0.61;64.17;102630.75;7395420;19;20002;-58
2023/04/05 02:03:54;;;;;;;13.50;6.10;;;;;;;0.74;63.81;102628.00;7393523;19;19998;-58
2023/04/05 02:06:21;;;;;;;11.60;5.53;;;;;;;0.84;63.22;102617.44;7393103;19;19995;-58
2023/04/05 02:08:46;;;;;;;10.25;5.28;;;;;;;0.80;63.42;102625.34;7392531;19;20095;-58
2023/04/05 02:11:12;;;;;;;12.35;5.40;;;;;;;0.78;63.61;102630.56;7395666;19;20333;-58
2023/04/05 02:13:38;;;;;;;12.13;5.43;;;;;;;0.80;63.35;102618.34;7392726;19;20476;-58
2023/04/05 02:16:03;;;;;;;12.48;5.72;;;;;;;0.52;64.19;102623.00;7392969;19;20352;-58
2023/04/05 02:18:30;;;;;;;12.10;5.80;;;;;;;0.63;64.26;102617.66;7393709;19;20533;-58
2023/04/05 02:21:06;;;;;;;11.43;5.68;;;;;;;0.80;63.61;102607.88;7395214;19;20003;-57
2023/04/05 02:23:33;;;;;;;12.02;5.55;;;;;;;0.78;63.05;102617.47;7394635;19;20067;-58
2023/04/05 02:25:59;;;;;;;11.60;5.53;;;;;;;0.27;64.92;102618.91;7391122;19;20009;-58
2023/04/05 02:28:25;;;;;;;11.98;5.35;;;;;;;0.55;64.36;102619.47;7393938;19;20026;-59
2023/04/05 02:30:50;;;;;;;12.70;5.60;;;;;;;0.68;63.71;102615.88;7394632;19;20338;-59
2023/04/05 02:33:16;;;;;;;11.57;5.50;;;;;;;0.69;63.62;102604.53;7391833;19;20619;-58
2023/04/05 02:35:41;;;;;;;11.88;5.63;;;;;;;0.63;63.60;102612.41;7392987;19;20005;-57
2023/04/05 02:38:08;;;;;;;12.30;6.20;;;;;;;0.42;64.37;102605.69;7394138;19;20016;-58
2023/04/05 02:40:34;;;;;;;12.07;5.32;;;;;;;0.40;64.54;102612.66;7394454;19;20003;-60
2023/04/05 02:43:00;;;;;;;12.07;5.80;;;;;;;0.56;64.18;102605.56;7390439;19;20074;-56
2023/04/05 02:45:26;;;;;;;12.75;6.20;;;;;;;0.11;nan;102611.19;7390975;19;20006;-55
2023/04/05 02:47:53;;;;;;;11.98;6.13;;;;;;;-0.10;66.18;102608.72;7394326;19;19995;-54
2023/04/05 02:50:19;;;;;;;11.35;5.53;;;;;;;-0.03;66.37;102606.94;7392075;19;20002;-53
2023/04/05 02:52:46;;;;;;;13.32;5.35;;;;;;;0.29;65.36;102607.56;7390629;19;19998;-54
2023/04/05 02:55:12;;;;;;;13.70;5.72;;;;;;;0.49;64.32;102602.13;7392877;19;20510;-53
2023/04/05 02:57:38;;;;;;;11.00;5.85;;;;;;;0.50;64.17;102597.75;7390818;19;20011;-55
2023/04/05 03:00:04;;;;;;;11.45;5.97;;;;;;;0.37;64.56;102605.72;7390344;19;19998;-55
2023/04/05 03:02:30;;;;;;;12.95;5.68;;;;;;;0.37;64.73;102604.88;7385630;19;20024;-53
2023/04/05 03:04:56;;;;;;;14.75;6.00;;;;;;;0.47;64.51;102595.16;7391408;19;20054;-55
2023/04/05 03:07:24;;;;;;;11.82;5.80;;;;;;;0.48;63.88;102605.63;7390193;19;19994;-55
2023/04/05 03:09:50;;;;;;;13.00;6.50;;;;;;;-0.01;65.75;102605.22;7393000;19;19998;-54
2023/04/05 03:12:15;;;;;;;10.77;5.65;;;;;;;-0.08;66.49;102600.03;7392722;19;20005;-55
2023/04/05 03:14:41;;;;;;;11.45;5.85;;;;;;;0.13;65.45;102603.31;7393005;19;20484;-53
2023/04/05 03:17:07;;;;;;;12.57;6.22;;;;;;;0.19;65.29;102605.91;7393873;19;19995;-54
2023/04/05 03:19:33;;;;;;;12.65;6.10;;;;;;;0.05;65.65;102600.78;7393864;19;20003;-54
2023/04/05 03:21:58;;;;;;;12.75;5.93;;;;;;;-0.17;66.75;102596.59;7391451;19;20447;-53
2023/04/05 03:24:24;;;;;;;12.80;5.70;;;;;;;-0.10;66.71;102591.31;7392354;19;20002;-53
2023/04/05 03:26:50;;;;;;;11.88;5.90;;;;;;;0.11;66.03;102594.66;7392508;19;20051;-53
2023/04/05 03:29:15;;;;;;;13.02;6.20;;;;;;;-0.17;66.84;102601.81;7390869;19;20451;-50
2023/04/05 03:31:41;;;;;;;12.20;6.15;;;;;;;-0.50;68.32;102601.19;7392004;19;20027;-54
2023/04/05 03:34:07;;;;;;;12.90;6.35;;;;;;;-0.33;68.01;102603.69;7392548;19;19994;-50
2023/04/05 03:36:40;;;;;;;13.55;6.38;;;;;;;0.00;66.80;102597.34;7391903;19;20470;-52
2023/04/05 03:39:11;;;;;;;14.18;6.68;;;;;;;-0.03;66.77;102592.13;7391024;19;20594;-53
2023/04/05 03:41:37;;;;;;;10.82;5.80;;;;;;;-0.55;68.50;102592.50;7389184;19;20019;-53
2023/04/05 03:44:03;;;;;;;14.05;6.47;;;;;;;-0.86;70.04;102590.06;7391684;19;20006;-52
2023/04/05 03:46:29;;;;;;;12.85;7.22;;;;;;;-0.93;70.45;102592.69;7391601;19;20035;-54
2023/04/05 03:48:56;;;;;;;13.15;6.25;;;;;;;-0.79;70.18;102591.78;7392656;19;19999;-53
2023/04/05 03:51:22;;;;;;;13.50;6.80;;;;;;;-0.82;70.13;102588.31;7391654;19;20351;-54
2023/04/05 03:53:48;;;;;;;13.52;7.00;;;;;;;-0.84;70.47;102577.88;7390907;19;19998;-54
2023/04/05 03:56:14;;;;;;;14.30;6.45;;;;;;;-0.93;70.63;102577.94;7391989;19;20002;-55
2023/04/05 03:58:40;;;;;;;11.65;6.85;;;;;;;-0.97;70.97;102583.16;7390711;19;20002;-54
2023/04/05 04:01:06;;;;;;;13.68;6.60;;;;;;;-0.97;70.77;102584.06;7391370;19;20003;-54
2023/04/05 04:03:31;;;;;;;16.23;7.10;;;;;;;-0.96;71.01;102585.78;7392159;19;20002;-53
2023/04/05 04:05:57;;;;;;;15.50;7.38;;;;;;;-1.03;71.19;102594.50;7389711;19;20007;-54
2023/04/05 04:08:22;;;;;;;14.48;7.25;;;;;;;-0.94;70.80;102585.75;7391373;19;19999;-53
2023/04/05 04:10:49;;;;;;;11.02;6.60;;;;;;;-0.75;70.18;102590.00;7389640;19;19998;-56
2023/04/05 04:13:18;;;;;;;12.18;6.80;;;;;;;-0.33;68.78;102588.88;7390398;19;20026;-54
2023/04/05 04:15:44;;;;;;;13.85;6.93;;;;;;;-0.18;67.73;102587.91;7392438;19;19999;-54
2023/04/05 04:18:10;;;;;;;15.25;7.22;;;;;;;-0.58;69.15;102587.31;7391307;19;20720;-59
2023/04/05 04:20:39;;;;;;;12.73;6.68;;;;;;;-0.85;70.54;102585.75;7391189;19;20044;-57
2023/04/05 04:23:08;;;;;;;13.35;7.07;;;;;;;-0.80;70.44;102591.78;7389598;19;20007;-53
2023/04/05 04:25:35;;;;;;;13.05;7.03;;;;;;;-0.66;69.80;102589.97;7388194;19;20032;-53
2023/04/05 04:28:03;;;;;;;14.57;7.13;;;;;;;-0.58;69.41;102590.78;7388983;19;20013;-53
2023/04/05 04:30:28;;;;;;;13.43;7.10;;;;;;;-0.45;69.06;102594.19;7391018;19;20023;-53
2023/04/05 04:32:54;;;;;;;13.73;7.10;;;;;;;-0.78;70.07;102592.63;7388214;19;20010;-51
2023/04/05 04:35:23;;;;;;;14.80;7.30;;;;;;;-0.64;69.74;102587.34;7390141;19;20090;-53
2023/04/05 04:37:59;;;;;;;12.70;6.90;;;;;;;-0.70;69.91;102587.38;7390888;19;20009;-54
2023/04/05 04:40:46;;;;;;;14.32;7.45;;;;;;;-0.81;70.05;102585.72;7391190;19;20014;-53
2023/04/05 04:43:17;;;;;;;13.57;7.55;;;;;;;-0.99;70.95;102585.78;7386443;19;20018;-52
2023/04/05 04:45:47;;;;;;;13.88;7.03;;;;;;;-0.99;70.98;102587.53;7389033;19;20002;-53
2023/04/05 04:48:15;;;;;;;13.50;7.68;;;;;;;-1.11;71.27;102593.66;7391076;19;19990;-54
2023/04/05 04:50:44;;;;;;;13.23;7.30;;;;;;;-1.25;71.62;102588.50;7391280;19;19990;-53
2023/04/05 04:53:12;;;;;;;13.43;6.65;;;;;;;-1.30;71.87;102590.25;7388362;19;20003;-54
2023/04/05 04:55:43;;;;;;;13.32;6.80;;;;;;;-1.15;71.56;102590.22;7390108;19;20003;-53
2023/04/05 04:58:11;;;;;;;16.05;7.68;;;;;;;-1.09;71.08;102592.78;7396390;19;19995;-53
2023/04/05 05:00:44;;;;;;;14.75;7.40;;;;;;;-1.20;71.71;102594.59;7397740;19;20074;-54
2023/04/05 05:03:10;;;;;;;15.40;6.88;;;;;;;-1.25;71.61;102595.44;7395643;19;19998;-55
2023/04/05 05:05:44;;;;;;;13.70;6.72;;;;;;;-1.24;71.66;102589.34;7394569;19;20514;-54
2023/04/05 05:08:10;;;;;;;11.82;6.38;;;;;;;-1.20;71.31;102585.88;7397486;19;19999;-55
2023/04/05 05:10:35;;;;;;;11.60;6.60;;;;;;;-1.13;71.13;102590.19;7397704;19;20480;-54
2023/04/05 05:13:01;;;;;;;12.15;6.75;;;;;;;-1.14;71.26;102591.06;7393890;19;20002;-55
2023/04/05 05:15:26;;;;;;;13.55;6.95;;;;;;;-1.09;71.06;102594.50;7397264;19;20058;-55
2023/04/05 05:17:54;;;;;;;12.98;6.93;;;;;;;-0.91;70.86;102591.84;7396991;19;20003;-55
2023/04/05 05:20:19;;;;;;;12.60;6.45;;;;;;;-0.43;68.98;102604.63;7395379;19;20457;-55
2023/04/05 05:22:45;;;;;;;15.65;7.43;;;;;;;-0.20;67.68;102602.72;7393882;19;19999;-54
2023/04/05 05:25:11;;;;;;;12.35;6.38;;;;;;;-0.36;67.48;102601.09;7394821;19;19998;-55
2023/04/05 05:27:37;;;;;;;14.77;6.35;;;;;;;-0.21;67.31;102587.91;7394358;19;20006;-55
2023/04/05 05:30:04;;;;;;;11.73;6.85;;;;;;;-0.01;66.41;102598.22;7397582;19;19991;-54
2023/04/05 05:32:29;;;;;;;15.80;7.18;;;;;;;0.07;66.03;102593.81;7393550;19;19999;-56
2023/04/05 05:34:55;;;;;;;12.70;6.57;;;;;;;-0.05;65.84;102599.13;7397333;19;19999;-55
2023/04/05 05:37:29;;;;;;;13.52;7.00;;;;;;;-0.09;66.16;102592.22;7397557;19;19994;-56
2023/04/05 05:39:54;;;;;;;13.85;6.85;;;;;;;0.04;66.31;102592.97;7396774;19;19995;-56
2023/04/05 05:42:20;;;;;;;14.52;7.65;;;;;;;0.18;65.49;102585.88;7391841;19;20325;-55
2023/04/05 05:44:45;;;;;;;12.18;6.72;;;;;;;0.28;64.98;102589.25;7394747;19;20002;-55
2023/04/05 05:47:11;;;;;;;14.07;6.43;;;;;;;0.24;64.59;102596.25;7396155;19;20019;-55
2023/04/05 05:49:36;;;;;;;10.05;5.50;;;;;;;0.22;64.45;102586.72;7395765;19;20071;-56
2023/04/05 05:52:03;;;;;;;12.60;6.22;;;;;;;0.28;64.23;102591.88;7394674;19;19995;-55
2023/04/05 05:54:28;;;;;;;14.73;6.50;;;;;;;0.34;64.28;102587.44;7395593;19;20391;-56
2023/04/05 05:56:54;;;;;;;12.23;6.20;;;;;;;0.40;64.23;102591.75;7394974;19;20003;-55
2023/04/05 05:59:19;;;;;;;11.27;5.85;;;;;;;0.30;64.60;102592.72;7393813;19;20006;-54
2023/04/05 06:01:45;;;;;;;13.48;5.85;;;;;;;0.38;64.63;102590.91;7393882;19;20006;-53
2023/04/05 06:04:12;;;;;;;12.75;5.30;;;;;;;0.28;64.63;102590.13;7393473;19;20359;-54
2023/04/05 06:06:39;;;;;;;13.45;6.15;;;;;;;0.18;65.06;102588.50;7395528;19;20023;-54
2023/04/05 06:09:05;;;;;;;13.82;5.70;;;;;;;0.28;64.71;102590.13;7394866;19;20015;-54
2023/04/05 06:11:30;;;;;;;11.27;5.60;;;;;;;0.49;63.88;102588.19;7394132;19;19999;-54
2023/04/05 06:13:56;;;;;;;11.90;5.40;;;;;;;0.64;63.39;102581.03;7394345;19;20441;-55
2023/04/05 06:16:22;;;;;;;13.55;5.60;;;;;;;0.70;63.12;102582.69;7395044;19;20447;-53
2023/04/05 06:18:48;;;;;;;12.88;5.75;;;;;;;0.80;62.99;102583.47;7394008;19;20470;-57
2023/04/05 06:21:14;;;;;;;12.13;5.55;;;;;;;0.81;62.89;102580.81;7394677;19;20007;-54
2023/04/05 06:23:43;;;;;;;14.63;5.32;;;;;;;0.86;62.44;102586.00;7392103;19;20003;-54
2023/04/05 06:26:19;;;;;;;17.73;5.63;;;;;;;0.82;62.70;102584.31;7392827;19;20009;-55
2023/04/05 06:28:46;;;;;;;16.42;5.35;;;;;;;0.83;63.06;102586.94;7395363;19;20005;-55
2023/04/05 06:31:14;;;;;;;16.88;6.65;;;;;;;0.90;62.71;102570.28;7392280;19;20022;-53
2023/04/05 06:33:40;;;;;;;15.13;5.82;;;;;;;1.00;62.53;102571.00;7393153;19;20015;-53
2023/04/05 06:36:06;;;;;;;31.52;6.30;;;;;;;0.78;63.13;102578.25;7394683;19;19999;-55
2023/04/05 06:38:32;;;;;;;16.67;5.53;;;;;;;0.87;63.17;102579.91;7395289;19;20020;-54
2023/04/05 06:40:57;;;;;;;14.05;5.57;;;;;;;0.81;63.08;102582.59;7392822;19;20539;-53
2023/04/05 06:43:23;;;;;;;13.07;5.57;;;;;;;1.03;62.85;102573.59;7389184;19;20007;-54
2023/04/05 06:45:49;;;;;;;15.10;6.00;;;;;;;1.27;62.16;102579.38;7391557;19;19987;-54
2023/04/05 06:48:14;;;;;;;15.90;6.22;;;;;;;1.28;61.57;102582.00;7394801;19;20146;-54
2023/04/05 06:50:40;;;;;;;18.27;5.43;;;;;;;1.29;61.99;102573.25;7394239;19;20006;-52
2023/04/05 06:53:06;;;;;;;15.32;5.38;;;;;;;1.37;61.63;102573.13;7391676;19;20345;-54
2023/04/05 06:55:32;;;;;;;17.88;5.88;;;;;;;1.40;61.74;102570.47;7393838;19;19999;-53
2023/04/05 06:57:58;;;;;;;15.88;5.85;;;;;;;1.46;61.48;102565.13;7393361;19;20010;-53
2023/04/05 07:00:24;;;;;;;14.35;5.07;;;;;;;1.51;61.21;102571.19;7393811;19;20463;-52
2023/04/05 07:02:49;;;;;;;14.60;5.35;;;;;;;1.57;61.00;102572.84;7392233;19;19998;-50
2023/04/05 07:05:15;;;;;;;11.88;5.07;;;;;;;1.68;60.61;102570.91;7391578;19;20411;-54
2023/04/05 07:07:43;;;;;;;18.25;5.40;;;;;;;1.66;60.74;102580.53;7392561;19;20006;-53
2023/04/05 07:10:09;;;;;;;12.20;4.95;;;;;;;1.70;61.16;102578.75;7392466;19;20006;-54
2023/04/05 07:12:35;;;;;;;16.08;4.70;;;;;;;1.75;60.97;102572.56;7389538;19;19995;-54
2023/04/05 07:15:01;;;;;;;16.15;4.63;;;;;;;1.86;60.47;102581.09;7391957;19;19998;-54
2023/04/05 07:17:27;;;;;;;14.15;4.97;;;;;;;1.83;60.66;102564.56;7393099;19;20011;-54
2023/04/05 07:19:52;;;;;;;12.57;4.63;;;;;;;1.98;60.34;102568.69;7391578;19;19995;-55
2023/04/05 07:22:18;;;;;;;12.32;4.97;;;;;;;2.12;59.94;102566.69;7391707;19;20002;-54
2023/04/05 07:24:45;;;;;;;13.93;5.30;;;;;;;2.13;59.45;102571.91;7391493;19;19994;-56
2023/04/05 07:27:11;;;;;;;12.93;4.65;;;;;;;2.19;59.12;102570.06;7390967;19;19999;-54
2023/04/05 07:29:39;;;;;;;11.63;4.88;;;;;;;2.31;59.16;102560.25;7390551;19;19987;-56
2023/04/05 07:32:06;;;;;;;10.48;4.43;;;;;;;2.48;59.42;102561.69;7390265;19;20335;-54
2023/04/05 07:34:36;;;;;;;11.48;4.95;;;;;;;2.55;58.93;102558.91;7392447;19;20377;-57
2023/04/05 07:37:04;;;;;;;15.27;5.22;;;;;;;2.54;58.78;102554.56;7392884;19;20082;-57
2023/04/05 07:39:30;;;;;;;10.23;4.40;;;;;;;2.58;58.59;102550.97;7392784;19;20006;-57
2023/04/05 07:41:55;;;;;;;12.73;4.88;;;;;;;2.64;57.95;102555.22;7390040;19;20021;-57
2023/04/05 07:44:21;;;;;;;14.68;5.10;;;;;;;2.68;58.13;102549.00;7390195;19;20446;-57
2023/04/05 07:46:46;;;;;;;14.98;5.18;;;;;;;2.85;57.15;102549.56;7391149;19;20002;-57
2023/04/05 07:49:12;;;;;;;12.45;4.63;;;;;;;2.93;56.09;102541.50;7391681;19;19998;-57
2023/04/05 07:51:45;;;;;;;14.25;5.10;;;;;;;2.98;55.98;102547.53;7390916;19;20085;-57
2023/04/05 07:54:10;;;;;;;12.13;4.63;;;;;;;3.01;55.63;102555.34;7392121;19;20066;-57
2023/04/05 07:56:36;;;;;;;9.82;3.97;;;;;;;3.10;54.96;102556.88;7390157;19;20376;-58
2023/04/05 07:59:02;;;;;;;13.60;4.85;;;;;;;3.21;54.99;102560.16;7392438;19;20002;-57
2023/04/05 08:01:28;;;;;;;9.73;4.53;;;;;;;3.40;54.45;102562.38;7391561;19;20516;-57
2023/04/05 08:03:56;;;;;;;10.65;4.28;;;;;;;3.47;53.66;102564.81;7387731;19;20031;-57
2023/04/05 08:06:22;;;;;;;11.68;4.55;;;;;;;3.48;52.75;102558.66;7392058;19;20018;-57
2023/04/05 08:08:48;;;;;;;10.48;4.07;;;;;;;3.50;52.35;102556.00;7392043;19;19990;-57
2023/04/05 08:11:13;;;;;;;10.40;3.80;;;;;;;3.55;51.83;102552.34;7391715;19;19999;-57
2023/04/05 08:13:40;;;;;;;9.50;3.63;;;;;;;3.65;51.26;102546.88;7390211;19;19995;-57
2023/04/05 08:16:09;;;;;;;9.45;3.63;;;;;;;3.72;50.89;102554.56;7391570;19;19999;-57
2023/04/05 08:18:35;;;;;;;9.35;3.90;;;;;;;3.75;50.29;102543.97;7389374;19;20015;-57
2023/04/05 08:21:01;;;;;;;10.80;3.60;;;;;;;3.81;49.78;102549.09;7389826;19;20011;-57
2023/04/05 08:23:26;;;;;;;11.88;3.85;;;;;;;3.87;49.97;102554.19;7389909;19;20015;-57
2023/04/05 08:25:53;;;;;;;11.30;4.68;;;;;;;3.98;49.71;102553.09;7389309;19;20058;-57
2023/04/05 08:28:19;;;;;;;8.02;3.65;;;;;;;4.03;49.60;102548.59;7388492;19;20002;-57
2023/04/05 08:30:45;;;;;;;13.57;3.78;;;;;;;4.07;49.71;102542.38;7392878;19;20062;-57
2023/04/05 08:33:11;;;;;;;11.80;3.78;;;;;;;4.15;49.52;102536.91;7397989;19;19995;-57
2023/04/05 08:35:37;;;;;;;13.25;4.03;;;;;;;4.19;49.50;102539.41;7397513;19;20058;-56
2023/04/05 08:38:05;;;;;;;8.15;3.35;;;;;;;4.20;49.26;102530.59;7397397;19;20003;-57
2023/04/05 08:40:43;;;;;;;9.60;3.00;;;;;;;4.22;48.42;102541.06;7396818;19;20003;-57
2023/04/05 08:43:10;;;;;;;12.23;2.90;;;;;;;4.31;47.96;102514.53;7394896;19;20003;-57
2023/04/05 08:45:45;;;;;;;5.45;2.05;;;;;;;4.42;47.04;102523.00;7385521;19;20011;-61
2023/04/05 08:48:10;;;;;;;5.55;1.92;;;;;;;4.49;46.78;102524.56;7401258;19;20009;-62
2023/04/05 08:50:36;;;;;;;9.15;2.60;;;;;;;4.51;46.53;102520.09;7397003;19;20002;-61
2023/04/05 08:53:02;;;;;;;7.72;2.40;;;;;;;4.53;46.21;102510.41;7395106;19;19994;-61
2023/04/05 08:55:27;;;;;;;5.93;2.25;;;;;;;4.62;45.60;102511.03;7395273;19;20054;-61
2023/04/05 08:57:58;;;;;;;10.20;2.25;;;;;;;4.65;45.46;102513.59;7397449;19;20002;-62
2023/04/05 09:00:26;;;;;;;6.22;2.00;;;;;;;4.71;44.84;102513.38;7397887;19;19998;-62
2023/04/05 09:02:56;;;;;;;7.07;2.40;;;;;;;4.76;43.77;102522.03;7396459;19;20066;-63
2023/04/05 09:05:23;;;;;;;8.07;2.75;;;;;;;4.76;43.48;102519.41;7392947;19;20387;-62
2023/04/05 09:07:50;;;;;;;5.70;2.30;;;;;;;4.79;43.62;102516.66;7395030;19;20364;-62
2023/04/05 09:10:18;;;;;;;9.30;2.33;;;;;;;4.82;43.52;102519.19;7397153;19;19998;-62
2023/04/05 09:12:44;;;;;;;5.43;2.20;;;;;;;4.87;43.85;102516.44;7397302;19;19987;-62
2023/04/05 09:15:10;;;;;;;5.07;2.10;;;;;;;4.83;43.68;102513.91;7393874;19;20078;-61
2023/04/05 09:17:38;;;;;;;7.35;2.42;;;;;;;4.90;42.52;102517.19;7397176;19;19998;-62
2023/04/05 09:20:04;;;;;;;6.32;2.50;;;;;;;4.93;41.93;102511.00;7396814;19;20009;-62
2023/04/05 09:22:30;;;;;;;5.65;2.45;;;;;;;4.98;42.04;102517.84;7395673;19;19995;-62
2023/04/05 09:24:56;;;;;;;7.82;2.55;;;;;;;5.07;42.28;102514.94;7395395;19;19995;-62
2023/04/05 09:27:21;;;;;;;6.63;2.72;;;;;;;5.09;41.85;102515.72;7396086;19;20327;-62
2023/04/05 09:29:48;;;;;;;8.38;2.53;;;;;;;5.11;42.29;102510.44;7395814;19;20332;-62
2023/04/05 09:32:15;;;;;;;5.10;2.20;;;;;;;5.11;41.79;102509.56;7395686;19;20003;-62
2023/04/05 09:34:41;;;;;;;7.10;2.50;;;;;;;5.11;41.76;102509.56;7396218;19;20006;-62
2023/04/05 09:37:15;;;;;;;6.00;2.30;;;;;;;5.14;41.10;102504.22;7396943;19;20002;-62
2023/04/05 09:39:41;;;;;;;3.97;1.70;;;;;;;5.22;41.31;102505.69;7396163;19;20065;-62
2023/04/05 09:42:13;;;;;;;5.60;2.00;;;;;;;5.27;40.14;102502.91;7394007;19;20010;-60
2023/04/05 09:44:52;;;;;;;8.00;2.20;;;;;;;5.38;40.27;102502.56;7394335;19;20019;-61
2023/04/05 09:47:23;;;;;;;7.22;1.80;;;;;;;5.40;40.13;102498.09;7395433;19;20320;-61
2023/04/05 09:49:49;;;;;;;4.20;1.65;;;;;;;5.39;39.60;102499.88;7394636;19;20039;-61
2023/04/05 09:52:23;;;;;;;4.90;1.60;;;;;;;5.43;39.40;102498.88;7394996;19;20013;-61
2023/04/05 09:54:51;;;;;;;4.82;1.50;;;;;;;5.55;38.79;102503.75;7393868;19;20010;-61
2023/04/05 09:57:17;;;;;;;4.90;2.13;;;;;;;5.52;39.31;102500.34;7395444;19;20044;-62
2023/04/05 09:59:44;;;;;;;3.40;1.52;;;;;;;5.47;38.23;102489.94;7395179;19;20019;-62
2023/04/05 10:02:10;;;;;;;8.68;1.98;;;;;;;5.45;38.00;102499.69;7393439;19;20003;-62
2023/04/05 10:04:45;;;;;;;4.38;1.52;;;;;;;5.50;37.63;102495.13;7394076;19;20463;-62
2023/04/05 10:07:12;;;;;;;4.70;1.70;;;;;;;5.47;37.65;102487.31;7396614;19;20518;-61
2023/04/05 10:09:43;;;;;;;4.05;1.40;;;;;;;5.56;37.97;102479.13;7395912;19;20002;-62
2023/04/05 10:12:11;;;;;;;3.15;1.40;;;;;;;5.61;37.01;102478.94;7394247;19;20033;-61
2023/04/05 10:14:37;;;;;;;4.53;1.77;;;;;;;5.61;37.53;102486.88;7395111;19;20010;-62
2023/04/05 10:17:26;;;;;;;5.55;1.60;;;;;;;5.57;37.22;102475.56;7393586;19;19999;-61
2023/04/05 10:20:04;;;;;;;3.20;1.45;;;;;;;5.58;36.93;102472.00;7395370;19;19999;-61
2023/04/05 10:22:39;;;;;;;6.22;2.00;;;;;;;5.58;37.21;102463.22;7394359;19;20026;-61
2023/04/05 10:25:24;;;;;;;7.22;2.00;;;;;;;5.69;37.60;102460.25;7392243;19;20328;-61
2023/04/05 10:27:58;;;;;;;7.03;1.50;;;;;;;5.76;37.99;102459.13;7395186;19;20034;-61
2023/04/05 10:30:29;;;;;;;;;;;;;;;5.76;36.56;102456.47;7395454;19;20015;-61
2023/04/05 10:32:57;;;;;;;6.18;2.08;;;;;;;5.85;37.70;102450.88;7393574;19;19933;-61
2023/04/05 10:35:34;;;;;;;4.05;1.42;;;;;;;5.88;36.53;102450.78;7393523;19;20013;-61
2023/04/05 10:38:18;;;;;;;5.53;1.50;;;;;;;5.91;36.39;102453.31;7393337;19;19998;-61
2023/04/05 10:40:47;;;;;;;4.53;1.40;;;;;;;5.89;36.26;102452.47;7394376;19;20066;-61
2023/04/05 10:43:21;;;;;;;3.83;1.38;;;;;;;5.95;36.03;102444.38;7393214;19;20359;-61
2023/04/05 10:45:50;;;;;;;3.85;1.55;;;;;;;6.00;35.96;102447.69;7390895;19;20051;-63
2023/04/05 10:48:31;;;;;;;3.13;1.50;;;;;;;6.05;35.01;102439.59;7393208;19;20502;-66
2023/04/05 10:50:57;;;;;;;3.70;1.50;;;;;;;6.03;35.29;102444.94;7394386;19;19995;-62
2023/04/05 10:53:24;;;;;;;3.90;1.40;;;;;;;6.09;35.53;102438.63;7392734;19;20008;-62
2023/04/05 10:55:51;;;;;;;5.07;2.05;;;;;;;6.10;35.61;102439.47;7391024;19;20058;-61
2023/04/05 10:58:18;;;;;;;3.22;1.67;;;;;;;6.10;35.52;102434.19;7393740;19;19999;-62
2023/04/05 11:00:46;;;;;;;5.10;1.65;;;;;;;6.13;35.64;102432.31;7393973;19;19999;-62
2023/04/05 11:04:00;;;;;;;5.22;1.83;;;;;;;6.18;34.54;102432.13;7392179;19;20006;-61
2023/04/05 11:06:29;;;;;;;6.68;2.17;;;;;;;6.15;35.15;102422.53;7389302;19;20033;-61
2023/04/05 11:09:19;;;;;;;4.90;2.13;;;;;;;6.22;34.91;102423.19;7393211;19;20009;-62
2023/04/05 11:11:46;;;;;;;3.78;1.48;;;;;;;6.33;35.24;102417.50;7392636;19;20006;-62
2023/04/05 11:14:34;;;;;;;4.70;1.67;;;;;;;6.39;34.99;102423.44;7393102;19;20040;-62
2023/04/05 11:16:59;;;;;;;5.20;1.60;;;;;;;6.45;36.07;102419.72;7393282;19;19995;-61
2023/04/05 11:19:53;;;;;;;6.22;2.00;;;;;;;6.52;34.99;102426.50;7392392;19;20058;-61
2023/04/05 11:22:26;;;;;;;2.95;1.55;;;;;;;6.52;35.18;102423.84;7392625;19;20031;-61
2023/04/05 11:25:03;;;;;;;4.65;1.70;;;;;;;6.49;35.38;102419.53;7391798;19;19999;-61
2023/04/05 11:27:36;;;;;;;5.03;1.85;;;;;;;6.53;36.12;102420.28;7392914;19;20006;-61
2023/04/05 11:30:03;;;;;;;6.75;1.92;;;;;;;6.68;36.30;102418.84;7391998;19;20010;-61
2023/04/05 11:32:43;;;;;;;6.28;2.10;;;;;;;6.79;36.70;102408.72;7392350;19;20023;-61